Time;durP1;ratioP1;P1;durP2;ratioP2;P2;SDS_P1;SDS_P2;PMS_P1;PMS_P2;Temp;Humidity;BMP_temperature;BMP_pressure;BME280_temperature;BME280_humidity;BME280_pressure;Samples;Min_cycle;Max_cycle;Signal;HPM_P1;HPM_P2
2022/10/26 00:01:30;;;;;;;5.47;1.87;;;14.90;99.90;;;;;;5051256;28;20339;-56
2022/10/26 00:03:57;;;;;;;4.03;1.90;;;15.00;99.90;;;;;;5051143;28;20206;-55
2022/10/26 00:06:25;;;;;;;3.17;1.47;;;15.00;99.90;;;;;;5051446;28;20225;-56
2022/10/26 00:08:53;;;;;;;4.93;2.10;;;15.10;99.90;;;;;;5050762;28;20320;-56
2022/10/26 00:11:20;;;;;;;3.63;1.83;;;15.10;99.90;;;;;;5051472;28;20206;-56
2022/10/26 00:13:48;;;;;;;2.77;1.40;;;15.10;99.90;;;;;;5051923;28;20201;-58
2022/10/26 00:16:19;;;;;;;3.90;1.60;;;15.20;99.90;;;;;;5051365;28;20559;-56
2022/10/26 00:18:46;;;;;;;3.97;1.80;;;15.30;99.90;;;;;;5050895;28;20229;-54
2022/10/26 00:21:13;;;;;;;2.93;1.30;;;15.30;99.90;;;;;;5051232;28;20720;-54
2022/10/26 00:23:40;;;;;;;4.97;1.60;;;15.40;99.90;;;;;;5051908;28;20205;-54
2022/10/26 00:26:08;;;;;;;3.17;1.53;;;15.40;99.90;;;;;;5051183;28;20594;-57
2022/10/26 00:28:35;;;;;;;9.80;1.80;;;15.40;99.90;;;;;;5050391;28;20651;-55
2022/10/26 00:31:03;;;;;;;4.10;1.67;;;15.40;99.90;;;;;;5054061;28;20529;-56
2022/10/26 00:33:31;;;;;;;5.30;1.67;;;15.30;99.90;;;;;;5054776;28;20224;-58
2022/10/26 00:35:58;;;;;;;4.23;1.47;;;15.30;99.90;;;;;;5031687;28;20217;-59
2022/10/26 00:38:25;;;;;;;6.50;1.60;;;15.20;99.90;;;;;;5048975;28;20732;-62
2022/10/26 00:40:51;;;;;;;6.93;1.60;;;15.00;99.90;;;;;;5053414;28;20206;-57
2022/10/26 00:43:37;;;;;;;4.53;1.80;;;14.90;99.90;;;;;;5052462;28;20263;-61
2022/10/26 00:46:08;;;;;;;4.60;1.90;;;14.80;99.90;;;;;;5053041;28;20206;-59
2022/10/26 00:48:40;;;;;;;2.70;1.40;;;14.80;99.90;;;;;;5052153;28;20245;-59
2022/10/26 00:51:10;;;;;;;5.43;1.97;;;14.60;99.90;;;;;;5030508;28;20206;-59
2022/10/26 00:53:38;;;;;;;8.00;1.90;;;14.60;99.90;;;;;;5031228;28;20206;-62
2022/10/26 00:56:05;;;;;;;2.37;1.33;;;14.60;99.90;;;;;;5033340;28;20261;-56
2022/10/26 00:58:33;;;;;;;5.23;1.70;;;14.50;99.90;;;;;;5033616;28;20230;-57
2022/10/26 01:01:00;;;;;;;5.77;1.80;;;14.50;99.90;;;;;;5034172;28;20260;-57
2022/10/26 01:03:28;;;;;;;6.63;1.67;;;14.50;99.90;;;;;;5034000;28;20217;-55
2022/10/26 01:05:57;;;;;;;2.47;1.50;;;14.50;99.90;;;;;;5033963;28;20207;-55
2022/10/26 01:08:27;;;;;;;4.23;1.70;;;14.60;99.90;;;;;;5033226;28;20285;-57
2022/10/26 01:10:54;;;;;;;3.07;1.53;;;14.70;99.90;;;;;;5033827;28;20242;-55
2022/10/26 01:13:21;;;;;;;2.90;1.37;;;14.90;99.90;;;;;;5033879;28;20206;-56
2022/10/26 01:15:56;;;;;;;3.07;1.60;;;15.00;99.90;;;;;;5034251;28;20210;-55
2022/10/26 01:18:34;;;;;;;3.70;1.77;;;15.10;99.90;;;;;;5033302;28;20221;-55
2022/10/26 01:21:30;;;;;;;2.80;1.60;;;15.20;99.90;;;;;;5033685;28;20214;-56
2022/10/26 01:24:19;;;;;;;5.17;2.00;;;15.30;99.90;;;;;;5033910;28;20225;-56
2022/10/26 01:27:01;;;;;;;3.70;1.70;;;15.40;99.90;;;;;;5033674;28;20222;-56
2022/10/26 01:29:55;;;;;;;2.50;1.50;;;15.40;99.90;;;;;;5032628;28;20229;-55
2022/10/26 01:32:30;;;;;;;5.13;1.60;;;15.50;99.90;;;;;;5024668;28;20276;-56
2022/10/26 01:35:03;;;;;;;4.73;1.63;;;15.50;99.90;;;;;;5033530;28;20206;-57
2022/10/26 01:37:35;;;;;;;3.57;1.33;;;15.50;99.90;;;;;;5033233;28;20214;-55
2022/10/26 01:40:09;;;;;;;3.13;1.53;;;15.40;99.90;;;;;;5032589;28;20605;-56
2022/10/26 01:42:42;;;;;;;2.07;1.30;;;15.40;99.90;;;;;;5033423;28;20206;-56
2022/10/26 01:45:12;;;;;;;3.27;1.53;;;15.40;99.90;;;;;;5033236;28;20206;-56
2022/10/26 01:47:40;;;;;;;3.57;1.27;;;15.40;99.90;;;;;;5033521;28;20238;-60
2022/10/26 01:50:09;;;;;;;2.17;1.37;;;15.40;99.90;;;;;;5032531;28;20210;-57
2022/10/26 01:52:36;;;;;;;7.23;1.57;;;15.40;99.90;;;;;;5033270;28;20213;-59
2022/10/26 01:55:06;;;;;;;5.60;1.53;;;15.40;99.90;;;;;;5033250;28;20202;-59
2022/10/26 01:57:36;;;;;;;3.73;1.80;;;15.30;99.90;;;;;;5033072;28;20227;-60
2022/10/26 02:00:07;;;;;;;5.00;1.70;;;15.30;99.90;;;;;;5032347;28;20230;-60
2022/10/26 02:02:52;;;;;;;5.00;1.40;;;15.30;99.90;;;;;;5032939;28;20593;-60
2022/10/26 02:05:45;;;;;;;3.87;1.50;;;15.30;99.90;;;;;;5033005;28;20206;-60
2022/10/26 02:08:25;;;;;;;3.50;1.60;;;15.30;99.90;;;;;;5032724;28;20230;-60
2022/10/26 02:11:06;;;;;;;8.40;1.90;;;15.30;99.90;;;;;;5032709;28;20229;-59
2022/10/26 02:13:41;;;;;;;4.60;2.00;;;15.30;99.90;;;;;;5032853;28;20619;-60
2022/10/26 02:16:17;;;;;;;5.53;1.77;;;15.30;99.90;;;;;;5032544;28;20209;-59
2022/10/26 02:18:51;;;;;;;4.13;1.60;;;15.30;99.90;;;;;;5031972;28;20226;-60
2022/10/26 02:21:23;;;;;;;5.50;1.90;;;15.40;99.90;;;;;;5032547;28;20206;-60
2022/10/26 02:23:52;;;;;;;9.60;1.90;;;15.40;99.90;;;;;;5032632;28;20194;-59
2022/10/26 02:26:23;;;;;;;5.00;1.90;;;15.40;99.90;;;;;;5032418;28;20206;-60
2022/10/26 02:28:51;;;;;;;6.07;2.60;;;15.30;99.90;;;;;;5031704;28;20234;-60
2022/10/26 02:31:19;;;;;;;5.23;2.80;;;15.20;99.90;;;;;;5032381;28;20213;-60
2022/10/26 02:33:50;;;;;;;10.57;2.77;;;15.20;99.90;;;;;;5032357;28;20210;-60
2022/10/26 02:36:21;;;;;;;6.07;3.07;;;15.10;99.90;;;;;;5032679;28;20226;-58
2022/10/26 02:38:51;;;;;;;6.10;3.30;;;15.10;99.90;;;;;;5031760;28;20222;-60
2022/10/26 02:41:20;;;;;;;6.00;3.03;;;15.00;99.90;;;;;;5032029;28;20674;-60
2022/10/26 02:43:53;;;;;;;4.57;2.23;;;15.00;99.90;;;;;;5032097;28;20679;-59
2022/10/26 02:46:22;;;;;;;7.43;3.37;;;15.00;99.90;;;;;;5032071;28;20565;-59
2022/10/26 02:48:50;;;;;;;6.33;3.10;;;15.00;99.90;;;;;;5031157;28;20606;-60
2022/10/26 02:51:21;;;;;;;6.37;3.63;;;15.10;99.90;;;;;;5032055;28;20218;-60
2022/10/26 02:53:53;;;;;;;4.63;2.83;;;15.10;99.90;;;;;;5031778;28;20213;-59
2022/10/26 02:56:24;;;;;;;6.73;2.13;;;15.10;99.90;;;;;;5031975;28;20217;-60
2022/10/26 02:58:56;;;;;;;6.33;1.80;;;15.20;99.90;;;;;;5031278;28;20269;-60
2022/10/26 03:01:23;;;;;;;5.50;1.53;;;15.20;99.90;;;;;;5032052;28;20217;-60
2022/10/26 03:03:51;;;;;;;7.57;1.90;;;15.30;99.90;;;;;;5031975;28;20213;-60
2022/10/26 03:06:22;;;;;;;4.00;1.47;;;15.30;99.90;;;;;;5031894;28;20283;-59
2022/10/26 03:08:49;;;;;;;4.57;1.57;;;15.30;99.90;;;;;;5031176;28;20656;-60
2022/10/26 03:11:16;;;;;;;9.37;2.50;;;15.40;99.90;;;;;;5031548;28;20674;-60
2022/10/26 03:13:42;;;;;;;4.23;2.30;;;15.30;99.90;;;;;;5031568;28;20613;-60
2022/10/26 03:16:09;;;;;;;7.17;4.67;;;15.30;99.90;;;;;;5031904;28;20213;-60
2022/10/26 03:18:36;;;;;;;4.47;2.70;;;15.30;99.90;;;;;;5031191;28;20383;-60
2022/10/26 03:21:04;;;;;;;2.80;2.03;;;15.40;99.90;;;;;;5031597;28;20613;-60
2022/10/26 03:23:30;;;;;;;5.70;2.90;;;15.40;99.90;;;;;;5031738;28;20210;-60
2022/10/26 03:25:57;;;;;;;3.77;1.87;;;15.40;99.90;;;;;;5031577;28;20232;-60
2022/10/26 03:28:24;;;;;;;7.83;3.60;;;15.30;99.90;;;;;;5031788;28;20594;-59
2022/10/26 03:30:51;;;;;;;7.37;3.20;;;15.20;99.90;;;;;;5031203;28;20213;-60
2022/10/26 03:33:18;;;;;;;6.67;1.83;;;15.20;99.90;;;;;;5031783;28;20206;-59
2022/10/26 03:35:45;;;;;;;6.87;3.10;;;15.20;99.90;;;;;;5031710;28;20261;-60
2022/10/26 03:38:13;;;;;;;12.10;7.83;;;15.10;99.90;;;;;;5031558;28;20230;-60
2022/10/26 03:40:41;;;;;;;5.93;2.73;;;15.10;99.90;;;;;;5030765;28;20585;-60
2022/10/26 03:43:07;;;;;;;4.53;1.83;;;15.10;99.90;;;;;;5031531;28;20642;-60
2022/10/26 03:45:34;;;;;;;4.50;2.17;;;15.10;99.90;;;;;;5031595;28;20228;-58
2022/10/26 03:48:01;;;;;;;6.30;2.43;;;15.20;99.90;;;;;;5031569;28;20271;-60
2022/10/26 03:50:27;;;;;;;5.13;2.77;;;15.30;99.90;;;;;;5030791;28;20202;-60
2022/10/26 03:52:54;;;;;;;9.90;5.30;;;15.20;99.90;;;;;;5031465;28;20206;-60
2022/10/26 03:55:22;;;;;;;5.57;2.67;;;15.30;99.90;;;;;;5031370;28;20218;-59
2022/10/26 03:57:49;;;;;;;6.00;3.23;;;15.30;99.90;;;;;;5031638;28;20665;-60
2022/10/26 04:00:17;;;;;;;8.43;4.30;;;15.30;99.90;;;;;;5031128;28;20209;-59
2022/10/26 04:02:47;;;;;;;6.07;2.70;;;15.30;99.90;;;;;;5031418;28;20643;-58
2022/10/26 04:05:15;;;;;;;5.33;2.40;;;15.30;99.90;;;;;;5033688;28;20221;-60
2022/10/26 04:07:42;;;;;;;5.67;2.23;;;15.20;99.90;;;;;;5034893;28;20327;-59
2022/10/26 04:10:09;;;;;;;4.33;2.20;;;15.10;99.90;;;;;;5034523;28;20213;-58
2022/10/26 04:12:38;;;;;;;8.30;3.80;;;15.10;99.90;;;;;;5035316;28;20206;-59
2022/10/26 04:15:06;;;;;;;4.20;2.10;;;15.00;99.90;;;;;;5035028;28;20674;-59
2022/10/26 04:17:33;;;;;;;5.77;2.60;;;15.10;99.90;;;;;;5035013;28;20289;-58
2022/10/26 04:20:00;;;;;;;6.80;2.33;;;15.00;99.90;;;;;;5034516;28;20202;-59
2022/10/26 04:22:26;;;;;;;7.53;2.83;;;14.90;99.90;;;;;;5034916;28;20206;-60
2022/10/26 04:24:53;;;;;;;6.63;3.00;;;14.90;99.90;;;;;;5035139;28;20685;-59
2022/10/26 04:27:20;;;;;;;6.00;3.30;;;14.80;99.90;;;;;;5034983;28;20213;-60
2022/10/26 04:29:48;;;;;;;7.43;5.30;;;14.80;99.90;;;;;;5034269;28;20202;-62
2022/10/26 04:32:14;;;;;;;7.80;4.20;;;14.80;99.90;;;;;;5034696;28;20626;-60
2022/10/26 04:34:41;;;;;;;7.37;4.30;;;14.70;99.90;;;;;;5034711;28;20605;-59
2022/10/26 04:37:08;;;;;;;8.57;3.40;;;14.70;99.90;;;;;;5034548;28;20220;-59
2022/10/26 04:39:34;;;;;;;6.77;3.20;;;14.60;99.90;;;;;;5034359;28;20233;-60
2022/10/26 04:42:01;;;;;;;4.33;2.80;;;14.60;99.90;;;;;;5034555;28;20702;-60
2022/10/26 04:44:28;;;;;;;3.87;2.30;;;14.60;99.90;;;;;;5034518;28;20218;-59
2022/10/26 04:46:56;;;;;;;18.90;10.40;;;14.60;99.90;;;;;;5034304;28;20210;-60
2022/10/26 04:49:23;;;;;;;6.57;3.20;;;14.70;99.90;;;;;;5033241;28;20234;-59
2022/10/26 04:51:49;;;;;;;9.47;3.23;;;14.70;99.90;;;;;;5034250;28;20512;-60
2022/10/26 04:54:16;;;;;;;7.83;3.03;;;14.80;99.90;;;;;;5034449;28;20285;-60
2022/10/26 04:56:43;;;;;;;5.90;2.13;;;14.90;99.90;;;;;;5034302;28;20293;-59
2022/10/26 04:59:09;;;;;;;3.87;1.83;;;14.90;99.90;;;;;;5033773;28;20226;-60
2022/10/26 05:01:36;;;;;;;3.50;1.30;;;15.00;99.90;;;;;;5034255;28;20202;-59
2022/10/26 05:04:04;;;;;;;4.77;1.53;;;14.90;99.90;;;;;;5034123;28;20221;-59
2022/10/26 05:06:31;;;;;;;3.47;1.70;;;14.80;99.90;;;;;;5034060;28;20202;-60
2022/10/26 05:08:58;;;;;;;6.63;1.77;;;14.80;99.90;;;;;;5032763;28;20677;-60
2022/10/26 05:11:24;;;;;;;7.87;3.40;;;14.80;99.90;;;;;;5033579;28;20526;-59
2022/10/26 05:13:51;;;;;;;4.47;1.70;;;14.90;99.90;;;;;;5033858;28;20225;-59
2022/10/26 05:16:18;;;;;;;5.17;1.67;;;15.00;99.90;;;;;;5033350;28;20210;-60
2022/10/26 05:18:47;;;;;;;6.83;1.70;;;14.90;99.90;;;;;;5032900;28;20242;-58
2022/10/26 05:21:18;;;;;;;6.87;2.70;;;15.00;99.90;;;;;;5033745;28;20206;-59
2022/10/26 05:23:47;;;;;;;4.27;2.07;;;14.90;99.90;;;;;;5033883;28;20207;-59
2022/10/26 05:26:14;;;;;;;4.23;1.77;;;14.90;99.90;;;;;;5033744;28;20210;-59
2022/10/26 05:28:41;;;;;;;5.30;1.70;;;14.90;99.90;;;;;;5033277;28;20226;-56
2022/10/26 05:31:07;;;;;;;6.67;1.60;;;15.00;99.90;;;;;;5033628;28;20625;-59
2022/10/26 05:33:34;;;;;;;3.53;1.90;;;15.00;99.90;;;;;;5033808;28;20210;-59
2022/10/26 05:36:01;;;;;;;5.83;1.90;;;15.00;99.90;;;;;;5033652;28;20276;-60
2022/10/26 05:38:29;;;;;;;5.37;1.80;;;15.10;99.90;;;;;;5033268;28;20728;-60
2022/10/26 05:40:56;;;;;;;6.10;1.63;;;15.20;99.90;;;;;;5033033;28;20640;-60
2022/10/26 05:43:23;;;;;;;3.17;1.70;;;15.20;99.90;;;;;;5033220;28;20214;-60
2022/10/26 05:45:51;;;;;;;3.63;2.00;;;15.30;99.90;;;;;;5032980;28;20260;-60
2022/10/26 05:48:18;;;;;;;3.27;1.73;;;15.20;99.90;;;;;;5033569;28;20233;-59
2022/10/26 05:50:45;;;;;;;2.73;1.70;;;15.20;99.90;;;;;;5032211;28;20210;-60
2022/10/26 05:53:12;;;;;;;3.97;1.77;;;15.30;99.90;;;;;;5032940;28;20206;-60
2022/10/26 05:55:42;;;;;;;8.17;2.10;;;15.30;99.90;;;;;;5032843;28;20206;-59
2022/10/26 05:58:11;;;;;;;4.70;1.50;;;15.30;99.90;;;;;;5032665;28;20222;-60
2022/10/26 06:00:48;;;;;;;3.73;1.90;;;15.30;99.90;;;;;;5032313;28;20213;-59
2022/10/26 06:03:25;;;;;;;4.37;2.13;;;15.30;99.90;;;;;;5032947;28;20210;-60
2022/10/26 06:05:54;;;;;;;5.50;2.10;;;15.40;99.90;;;;;;5032771;28;20209;-60
2022/10/26 06:08:23;;;;;;;4.80;2.20;;;15.50;99.90;;;;;;5032610;28;20230;-60
2022/10/26 06:10:53;;;;;;;3.07;2.33;;;15.60;99.90;;;;;;5031970;28;20218;-60
2022/10/26 06:13:21;;;;;;;3.20;1.50;;;15.70;99.90;;;;;;5032791;28;20561;-60
2022/10/26 06:16:03;;;;;;;4.27;2.13;;;15.60;99.90;;;;;;5032703;28;20237;-58
2022/10/26 06:18:39;;;;;;;6.00;2.67;;;15.60;99.90;;;;;;5032517;28;20226;-60
2022/10/26 06:21:20;;;;;;;5.67;2.00;;;15.70;99.90;;;;;;5032137;28;20205;-60
2022/10/26 06:23:52;;;;;;;5.93;2.17;;;15.80;99.90;;;;;;5032376;28;20571;-60
2022/10/26 06:26:32;;;;;;;5.27;2.30;;;16.00;99.90;;;;;;5032425;28;20261;-60
2022/10/26 06:29:07;;;;;;;4.07;1.97;;;16.10;99.90;;;;;;5031234;28;20226;-59
2022/10/26 06:31:33;;;;;;;5.30;2.20;;;16.20;99.90;;;;;;5032161;28;20708;-60
2022/10/26 06:34:00;;;;;;;6.45;2.28;;;16.30;99.90;;;;;;5032562;28;20217;-60
2022/10/26 06:36:28;;;;;;;4.90;2.10;;;16.40;99.90;;;;;;5032236;28;20206;-58
2022/10/26 06:38:59;;;;;;;5.18;1.70;;;16.50;99.90;;;;;;5031632;28;20230;-61
2022/10/26 06:41:30;;;;;;;3.23;1.90;;;16.50;99.90;;;;;;5032236;28;20210;-58
2022/10/26 06:43:57;;;;;;;8.60;2.30;;;16.50;99.90;;;;;;5031998;28;20214;-58
2022/10/26 06:46:36;;;;;;;3.90;2.53;;;16.50;99.90;;;;;;5032283;28;20206;-59
2022/10/26 06:49:11;;;;;;;5.90;2.80;;;16.50;99.90;;;;;;5031212;28;20299;-58
2022/10/26 06:51:44;;;;;;;4.38;2.42;;;16.50;99.90;;;;;;5032085;28;20213;-59
2022/10/26 06:54:18;;;;;;;7.80;3.00;;;16.50;99.90;;;;;;5031964;28;20202;-59
2022/10/26 06:56:47;;;;;;;10.43;4.67;;;16.50;99.90;;;;;;5031924;28;20700;-58
2022/10/26 06:59:22;;;;;;;25.55;10.45;;;16.50;99.90;;;;;;5031578;28;20222;-59
2022/10/26 07:01:49;;;;;;;20.50;10.97;;;16.40;99.90;;;;;;5032115;28;20213;-59
2022/10/26 07:04:15;;;;;;;9.18;4.40;;;16.20;99.90;;;;;;5031940;28;20554;-59
2022/10/26 07:06:42;;;;;;;6.00;2.57;;;16.10;99.90;;;;;;5031883;28;20206;-59
2022/10/26 07:09:09;;;;;;;14.43;3.58;;;16.00;99.90;;;;;;5031063;28;20257;-58
2022/10/26 07:11:35;;;;;;;3.08;2.40;;;15.90;99.90;;;;;;5031989;28;20202;-59
2022/10/26 07:14:04;;;;;;;4.43;3.13;;;15.80;99.90;;;;;;5031853;28;20213;-59
2022/10/26 07:16:30;;;;;;;4.23;2.43;;;15.80;99.90;;;;;;5032012;28;20206;-59
2022/10/26 07:18:57;;;;;;;8.10;2.63;;;15.70;99.90;;;;;;5031069;28;20233;-57
2022/10/26 07:21:24;;;;;;;8.57;4.13;;;15.70;99.90;;;;;;5031522;28;20209;-58
2022/10/26 07:23:51;;;;;;;7.03;3.22;;;15.80;99.90;;;;;;5031552;28;20209;-59
2022/10/26 07:26:18;;;;;;;6.80;2.78;;;15.70;99.90;;;;;;5031598;28;20729;-59
2022/10/26 07:28:47;;;;;;;9.13;3.23;;;15.70;99.90;;;;;;5031549;28;20233;-59
2022/10/26 07:31:15;;;;;;;4.97;2.20;;;15.60;99.90;;;;;;5031199;28;20213;-59
2022/10/26 07:33:44;;;;;;;5.50;2.17;;;15.70;99.90;;;;;;5031600;28;20234;-59
2022/10/26 07:36:11;;;;;;;2.87;2.33;;;15.70;99.90;;;;;;5031254;28;20214;-59
2022/10/26 07:38:38;;;;;;;2.65;1.90;;;15.80;99.90;;;;;;5032721;28;20229;-59
2022/10/26 07:41:06;;;;;;;3.53;2.27;;;15.90;99.90;;;;;;5035076;28;20205;-58
2022/10/26 07:43:32;;;;;;;5.87;2.90;;;15.90;99.90;;;;;;5035703;28;20212;-59
2022/10/26 07:45:59;;;;;;;6.10;2.97;;;16.00;99.90;;;;;;5035410;28;20677;-58
2022/10/26 07:48:27;;;;;;;3.70;2.60;;;16.10;99.90;;;;;;5066411;22;20516;-58
2022/10/26 07:50:54;;;;;;;4.83;2.40;;;16.10;99.90;;;;;;5054972;28;20509;-58
2022/10/26 07:53:20;;;;;;;5.83;2.37;;;16.00;99.90;;;;;;5055950;28;20210;-58
2022/10/26 07:55:54;;;;;;;4.97;3.00;;;15.90;99.90;;;;;;5055599;28;20696;-58
2022/10/26 07:58:22;;;;;;;9.70;2.73;;;15.80;99.90;;;;;;5055547;28;20674;-58
2022/10/26 08:00:49;;;;;;;3.77;2.73;;;16.00;99.90;;;;;;5055053;28;20354;-58
2022/10/26 08:03:16;;;;;;;4.33;2.40;;;16.10;99.90;;;;;;5055397;28;20558;-59
2022/10/26 08:05:46;;;;;;;6.57;3.45;;;16.40;99.90;;;;;;5055461;28;20233;-62
2022/10/26 08:08:13;;;;;;;4.75;3.15;;;16.60;99.90;;;;;;5055313;28;20294;-63
2022/10/26 08:10:42;;;;;;;8.52;3.22;;;16.80;99.90;;;;;;5036769;28;20208;-62
2022/10/26 08:13:09;;;;;;;7.63;3.20;;;16.90;99.90;;;;;;5048835;28;20202;-62
2022/10/26 08:15:36;;;;;;;9.43;3.70;;;17.00;99.90;;;;;;5053852;28;20212;-63
2022/10/26 08:18:03;;;;;;;4.38;2.47;;;17.10;99.90;;;;;;5053903;28;20233;-63
2022/10/26 08:20:29;;;;;;;5.15;2.85;;;17.20;99.90;;;;;;5052976;28;20212;-62
2022/10/26 08:22:58;;;;;;;8.35;3.40;;;17.30;99.90;;;;;;5053807;28;20210;-62
2022/10/26 08:25:24;;;;;;;7.10;3.03;;;17.40;99.90;;;;;;5054018;28;20212;-62
2022/10/26 08:27:51;;;;;;;6.15;3.13;;;17.40;99.90;;;;;;5052925;28;20209;-62
2022/10/26 08:30:18;;;;;;;6.25;2.92;;;17.50;99.90;;;;;;5052955;28;20324;-62
2022/10/26 08:32:45;;;;;;;5.60;2.88;;;17.50;99.90;;;;;;5053983;28;20304;-62
2022/10/26 08:35:11;;;;;;;8.30;2.83;;;17.70;99.90;;;;;;5053482;28;20217;-63
2022/10/26 08:37:38;;;;;;;5.25;2.17;;;17.80;99.90;;;;;;5053125;28;20696;-62
2022/10/26 08:40:10;;;;;;;11.70;2.72;;;18.00;99.90;;;;;;5052986;28;20293;-62
2022/10/26 08:42:42;;;;;;;4.07;2.05;;;18.20;99.90;;;;;;5053519;28;20202;-62
2022/10/26 08:45:18;;;;;;;5.05;2.17;;;18.50;99.90;;;;;;5053443;28;20214;-63
2022/10/26 08:47:50;;;;;;;5.63;2.20;;;18.60;99.90;;;;;;5052766;28;20205;-63
2022/10/26 08:50:25;;;;;;;6.22;2.30;;;18.80;99.90;;;;;;5051959;28;20218;-63
2022/10/26 08:53:01;;;;;;;4.78;2.05;;;19.00;99.90;;;;;;5052931;28;20819;-62
2022/10/26 08:55:34;;;;;;;5.15;2.00;;;19.20;99.90;;;;;;5053209;28;20781;-63
2022/10/26 08:58:01;;;;;;;5.95;1.70;;;19.30;99.90;;;;;;5052663;28;20221;-62
2022/10/26 09:00:30;;;;;;;10.45;2.30;;;19.40;99.90;;;;;;5052610;28;20208;-63
2022/10/26 09:02:57;;;;;;;3.22;1.85;;;19.40;99.90;;;;;;5052916;28;20201;-63
2022/10/26 09:05:32;;;;;;;4.90;1.90;;;19.40;99.90;;;;;;5053466;28;20581;-62
2022/10/26 09:08:07;;;;;;;5.80;1.90;;;19.50;99.90;;;;;;5052425;28;20302;-62
2022/10/26 09:10:39;;;;;;;6.35;2.28;;;19.50;99.90;;;;;;5052221;28;20405;-64
2022/10/26 09:13:16;;;;;;;9.80;2.65;;;19.50;99.90;;;;;;5053161;28;20209;-64
2022/10/26 09:15:57;;;;;;;8.32;2.33;;;19.60;99.90;;;;;;5052385;28;20190;-63
2022/10/26 09:18:34;;;;;;;3.58;1.95;;;19.70;99.90;;;;;;5052628;28;20241;-63
2022/10/26 09:21:20;;;;;;;5.40;1.98;;;19.80;99.90;;;;;;5051995;28;20206;-61
2022/10/26 09:24:05;;;;;;;6.97;1.90;;;19.80;99.90;;;;;;5052961;28;20205;-60
2022/10/26 09:26:39;;;;;;;4.18;1.98;;;20.00;99.90;;;;;;5052098;28;20210;-61
2022/10/26 09:29:10;;;;;;;4.25;1.85;;;20.10;99.90;;;;;;5051852;28;20233;-62
2022/10/26 09:31:40;;;;;;;4.95;2.00;;;20.30;99.90;;;;;;5052839;28;20212;-62
2022/10/26 09:34:12;;;;;;;4.95;2.40;;;20.50;99.90;;;;;;5052829;28;20399;-61
2022/10/26 09:36:39;;;;;;;7.10;2.00;;;20.80;99.90;;;;;;5053965;28;20583;-61
2022/10/26 09:39:19;;;;;;;3.72;1.95;;;20.80;99.90;;;;;;5054177;28;20786;-61
2022/10/26 09:41:52;;;;;;;2.58;1.58;;;20.90;99.90;;;;;;5055639;28;20205;-60
2022/10/26 09:44:26;;;;;;;4.72;2.00;;;21.00;99.90;;;;;;5053774;28;20220;-61
2022/10/26 09:46:57;;;;;;;7.75;3.25;;;21.10;99.90;;;;;;5032338;28;20293;-58
2022/10/26 09:49:32;;;;;;;8.30;2.45;;;21.10;99.90;;;;;;5031564;28;20237;-59
2022/10/26 09:51:59;;;;;;;4.05;2.08;;;21.10;99.90;;;;;;5031945;28;20209;-58
2022/10/26 09:54:26;;;;;;;4.93;1.77;;;21.00;99.90;;;;;;5032380;28;20217;-59
2022/10/26 09:56:58;;;;;;;5.90;1.77;;;20.90;99.90;;;;;;5031964;28;20218;-58
2022/10/26 09:59:25;;;;;;;5.05;2.03;;;20.70;99.90;;;;;;5031379;28;20233;-59
2022/10/26 10:01:52;;;;;;;7.32;2.10;;;20.60;99.90;;;;;;5031966;28;20232;-62
2022/10/26 10:04:21;;;;;;;4.15;1.85;;;20.50;99.90;;;;;;5032198;28;20220;-61
2022/10/26 10:06:49;;;;;;;4.55;1.90;;;20.60;99.90;;;;;;5031342;28;20206;-62
2022/10/26 10:09:18;;;;;;;4.22;2.00;;;20.60;99.90;;;;;;5031204;28;20230;-62
2022/10/26 10:11:53;;;;;;;4.00;1.98;;;20.70;99.90;;;;;;5031757;28;20276;-62
2022/10/26 10:14:23;;;;;;;7.80;2.45;;;20.80;99.90;;;;;;5031760;28;20237;-63
2022/10/26 10:16:54;;;;;;;6.65;2.20;;;20.80;99.90;;;;;;5030767;28;20214;-63
2022/10/26 10:19:26;;;;;;;6.45;2.28;;;20.90;99.90;;;;;;5030801;28;20250;-62
2022/10/26 10:21:56;;;;;;;4.25;2.35;;;20.90;99.90;;;;;;5031505;28;20237;-62
2022/10/26 10:24:26;;;;;;;7.03;2.40;;;20.90;99.90;;;;;;5031401;28;20710;-59
2022/10/26 10:26:58;;;;;;;4.55;3.30;;;20.90;99.90;;;;;;5031024;28;20206;-60
2022/10/26 10:29:27;;;;;;;7.57;3.00;;;21.10;99.90;;;;;;5030689;28;20230;-59
2022/10/26 10:31:58;;;;;;;9.40;3.05;;;21.30;99.90;;;;;;5031662;28;20210;-61
2022/10/26 10:34:25;;;;;;;5.88;2.50;;;21.50;99.90;;;;;;5031446;28;20214;-60
2022/10/26 10:36:52;;;;;;;5.47;2.03;;;21.70;99.90;;;;;;5031054;28;20211;-62
2022/10/26 10:39:38;;;;;;;5.82;2.80;;;21.90;99.90;;;;;;5030564;28;20234;-59
2022/10/26 10:42:13;;;;;;;25.25;11.55;;;22.20;99.90;;;;;;5031249;28;20210;-58
2022/10/26 10:44:43;;;;;;;8.38;3.50;;;22.40;99.90;;;;;;5031543;28;20209;-61
2022/10/26 10:47:19;;;;;;;5.18;3.28;;;22.60;99.90;;;;;;5030798;28;20213;-60
2022/10/26 10:49:52;;;;;;;5.57;2.40;;;22.90;99.90;;;;;;5029959;28;20238;-60
2022/10/26 10:52:25;;;;;;;6.93;2.42;;;23.20;99.90;;;;;;5031204;28;20210;-60
2022/10/26 10:54:58;;;;;;;3.15;1.95;;;23.50;99.90;;;;;;5031320;28;20213;-60
2022/10/26 10:57:33;;;;;;;5.97;2.10;;;23.80;99.90;;;;;;5030874;28;20210;-62
2022/10/26 11:00:04;;;;;;;4.65;2.10;;;23.80;99.90;;;;;;5030109;28;20202;-61
2022/10/26 11:03:05;;;;;;;9.52;2.80;;;23.60;99.90;;;;;;5023050;28;20232;-60
2022/10/26 11:05:47;;;;;;;9.02;2.25;;;23.30;99.90;;;;;;5024851;28;20212;-60
2022/10/26 11:08:20;;;;;;;7.75;2.30;;;22.90;99.90;;;;;;5029832;28;20258;-62
2022/10/26 11:10:51;;;;;;;2.22;1.83;;;22.50;99.90;;;;;;5029934;28;20441;-61
2022/10/26 11:13:22;;;;;;;8.75;2.00;;;22.20;99.90;;;;;;5032553;28;20221;-62
2022/10/26 11:15:56;;;;;;;5.63;2.05;;;22.20;99.90;;;;;;5030441;28;20578;-62
2022/10/26 11:18:29;;;;;;;8.38;2.30;;;22.10;99.90;;;;;;5033250;28;20230;-60
2022/10/26 11:21:02;;;;;;;5.63;2.40;;;22.00;99.90;;;;;;5036009;28;20690;-60
2022/10/26 11:23:36;;;;;;;6.25;4.10;;;21.90;99.90;;;;;;5032741;28;20585;-61
2022/10/26 11:26:11;;;;;;;8.60;2.42;;;21.80;99.90;;;;;;5032352;28;20206;-60
2022/10/26 11:28:47;;;;;;;6.45;2.30;;;21.70;99.90;;;;;;5032123;28;20240;-60
2022/10/26 11:31:20;;;;;;;5.82;2.33;;;21.60;99.90;;;;;;5031364;28;20230;-61
2022/10/26 11:33:53;;;;;;;5.15;2.03;;;21.60;99.90;;;;;;5031813;28;20553;-60
2022/10/26 11:36:24;;;;;;;9.93;2.20;;;21.60;99.90;;;;;;5031933;28;20681;-60
2022/10/26 11:38:57;;;;;;;10.02;2.78;;;21.60;99.90;;;;;;5031893;28;20226;-61
2022/10/26 11:41:29;;;;;;;6.38;2.10;;;21.70;99.90;;;;;;5032207;28;20202;-61
2022/10/26 11:44:05;;;;;;;6.13;2.67;;;21.80;99.90;;;;;;5032474;28;20210;-60
2022/10/26 11:46:39;;;;;;;8.95;2.85;;;22.00;99.90;;;;;;5033532;28;20216;-64
2022/10/26 11:49:14;;;;;;;12.70;5.95;;;22.20;99.90;;;;;;5033479;28;20233;-65
2022/10/26 11:51:44;;;;;;;4.95;2.63;;;22.40;99.90;;;;;;5032639;28;20260;-59
2022/10/26 11:54:16;;;;;;;5.30;1.83;;;22.60;99.90;;;;;;5033379;28;20213;-59
2022/10/26 11:56:48;;;;;;;6.78;2.28;;;22.80;99.90;;;;;;5032253;28;20210;-60
2022/10/26 11:59:18;;;;;;;6.25;1.95;;;23.00;99.90;;;;;;5032360;28;20237;-61
2022/10/26 12:01:49;;;;;;;7.88;2.08;;;23.10;99.90;;;;;;5031734;28;20233;-59
2022/10/26 12:04:18;;;;;;;6.85;2.00;;;23.10;99.90;;;;;;5032143;28;20217;-61
2022/10/26 12:06:47;;;;;;;6.40;2.70;;;23.30;99.90;;;;;;5031779;28;20694;-59
2022/10/26 12:09:18;;;;;;;6.90;2.67;;;23.50;99.90;;;;;;5031585;28;20606;-60
2022/10/26 12:11:50;;;;;;;4.55;1.88;;;23.80;99.90;;;;;;5031255;28;20230;-60
2022/10/26 12:14:23;;;;;;;5.57;1.95;;;23.90;99.90;;;;;;5031777;28;20218;-61
2022/10/26 12:17:02;;;;;;;5.00;1.90;;;24.10;99.90;;;;;;5031712;28;20217;-59
2022/10/26 12:19:33;;;;;;;6.25;1.65;;;24.20;99.90;;;;;;5030776;28;20230;-60
2022/10/26 12:22:00;;;;;;;5.85;2.65;;;24.20;99.90;;;;;;5031652;28;20211;-60
2022/10/26 12:24:34;;;;;;;6.50;2.30;;;24.20;99.90;;;;;;5031673;28;20217;-59
2022/10/26 12:27:02;;;;;;;6.90;2.20;;;24.20;99.90;;;;;;5034638;28;20206;-60
2022/10/26 12:29:38;;;;;;;7.22;2.10;;;24.00;99.90;;;;;;5034348;28;20317;-59
2022/10/26 12:32:48;;;;;;;6.63;1.83;;;24.00;99.90;;;;;;5035046;28;20202;-60
2022/10/26 12:35:37;;;;;;;7.88;2.03;;;23.80;99.90;;;;;;5035269;28;20206;-60
2022/10/26 12:38:42;;;;;;;9.07;2.42;;;23.60;99.90;;;;;;5034938;28;20233;-60
2022/10/26 12:41:19;;;;;;;6.20;2.13;;;23.60;99.90;;;;;;5035649;28;20232;-60
2022/10/26 12:43:46;;;;;;;6.47;2.25;;;23.60;99.90;;;;;;5038972;28;20480;-60
2022/10/26 12:46:40;;;;;;;7.93;2.15;;;23.60;99.90;;;;;;5037445;28;20206;-61
2022/10/26 12:49:58;;;;;;;5.63;2.00;;;23.80;99.90;;;;;;5038216;28;20753;-61
2022/10/26 12:52:48;;;;;;;8.43;1.83;;;23.90;99.90;;;;;;5035775;28;20206;-60
2022/10/26 12:55:48;;;;;;;7.97;1.83;;;24.00;99.90;;;;;;5037351;28;20206;-59
2022/10/26 12:58:38;;;;;;;5.10;1.75;;;23.90;99.90;;;;;;5034202;28;20606;-60
2022/10/26 13:01:55;;;;;;;8.20;2.00;;;23.90;99.90;;;;;;5033802;28;20252;-60
2022/10/26 13:04:52;;;;;;;6.35;2.13;;;23.90;99.90;;;;;;5021589;28;20215;-60
2022/10/26 13:07:22;;;;;;;5.28;1.90;;;24.00;99.90;;;;;;5034145;28;20210;-60